TJPS/PSE METAR and TAF weather

Enter ICAO airport designator
Station Type Date Time Source
TJPS METAR 2018/08/31 06:50 UTC NOAA

TJPS 310650Z 00000KT 8SM SCT020 BKN030 22/22 A3001


Station Type Date Time Source
TJPS Decoded METAR 2018/08/31 06:50 UTC NOAA

Ponce, Mercedita Airport, PR, United States (TJPS) 18-01N 066-34W
Aug 31, 2018 - 02:50 AM EDT / 2018.08.31 0650 UTC
Wind: Calm:0
Visibility: 8 mile(s):0
Sky conditions: mostly cloudy
Temperature: 71 F (22 C)
Dew Point: 71 F (22 C)
Relative Humidity: 100%
Pressure (altimeter): 30.01 in. Hg (1016 hPa)
ob: TJPS 310650Z 00000KT 8SM SCT020 BKN030 22/22 A3001
cycle: 7

Station Type Date Time Source
TJPS TAF 2019/10/14 19:39 UTC NOAA

TAF TJPS 141833Z 1419/1518 13014KT P6SM VCTS SCT025CB BKN050
TEMPO 1419/1421 VRB12G19KT TSRA BKN025CB OVC060
FM142230 09008KT P6SM FEW030 SCT050 SCT090
FM150200 05003KT P6SM FEW050 FEW090
FM150800 VRB03KT P6SM VCSH SCT030 SCT050
AMD NOT SKED 1502/1511

Example: see airport list